Burns, TN (37029)

7:36 AM CST on February 12, 2016 (GMT -0600)
Tidwell Weather Station-- Intersection Hwy 47 and Hwy 96, Burns/Dickson | | Change Station
CLOSE
Current Station
Personal Weather Station
Location: Burns, TN
Elevation: 783 ft
Nearby Weather Stations

Elev 783 ft 36.05 °N, 87.30 °W | Updated 1 second ago

Partly Cloudy
Partly Cloudy
32.1 °F
Feels Like 32 °F
N
0.0
Wind Variable Wind from NNE
Gusts 0.0 mph

Today
High -- | Low -- °F
--% Chance of Precip.
Yesterday
High -- | Low -- °F
Precip. -- in
Pressure 30.20 in
Visibility 10.0 miles
Clouds Few 5000 ft
Overcast 7000 ft
Windchill 32 °F
Dew Point 22 °F
Humidity 67%
Rainfall 0.00 in
Snow Depth Not available.
6:40 AM 5:26 PM
Waxing Crescent, 20% visible
METAR KBNA 121253Z 00000KT 10SM FEW050 OVC070 01/M06 A3019 RMK AO2 SNE28 SLP226 P0000 T00111056
Pressure 30.20 in
Visibility 10.0 miles
Clouds Few 5000 ft
Overcast 7000 ft
Windchill 32 °F
Dew Point 22 °F
Humidity 67%
Rainfall 0.00 in
Snow Depth Not available.
6:40 AM 5:26 PM
Waxing Crescent, 20% visible
METAR KBNA 121253Z 00000KT 10SM FEW050 OVC070 01/M06 A3019 RMK AO2 SNE28 SLP226 P0000 T00111056

10-Day Weather Forecast

Almanac

Astronomy

Feb. 12, 2016 Rise Set
Actual Time
Civil Twilight
Nautical Twilight
Astronomical Twilight
Moon
Length of Visible Light
Length of Day
Tomorrow will be .
, % of the Moon is Illuminated

Today's Extremes

State Highs State Lows

Community

WunderPhotos

Upload Photos

1,892,312 photos uploaded!

WunderBlog® & News

Nearby

Air Quality

  Air Quality AQ Index Pollutant
Not available.

Snow Depth

Station Depth Elevation

Earthquake Activity

City Distance Mag. Time & Date
Minimum magnitude displayed is 2.5.

Coastal Water Temperatures

Place Temperature

Stations

Nearby Weather Stations

Station Location Temp. Windchill Dew Point Humidity Wind Precip. Elev Updated Type
                   

Watches & Warnings

There are currently no watches in effect.